sensor_id;sensor_type;location;lat;lon;timestamp;P1;durP1;ratioP1;P2;durP2;ratioP2
40367;SDS011;26075;43.320;21.920;2022-12-18T00:04:46;37.22;;;25.77;;
40367;SDS011;26075;43.320;21.920;2022-12-18T00:09:47;39.13;;;27.65;;
40367;SDS011;26075;43.320;21.920;2022-12-18T00:14:48;41.75;;;30.15;;
40367;SDS011;26075;43.320;21.920;2022-12-18T00:19:49;43.60;;;30.70;;
40367;SDS011;26075;43.320;21.920;2022-12-18T00:24:50;42.08;;;30.52;;
40367;SDS011;26075;43.320;21.920;2022-12-18T00:29:51;44.08;;;30.45;;
40367;SDS011;26075;43.320;21.920;2022-12-18T00:40:05;44.42;;;30.55;;
40367;SDS011;26075;43.320;21.920;2022-12-18T00:45:06;44.97;;;30.38;;
40367;SDS011;26075;43.320;21.920;2022-12-18T00:50:07;43.83;;;30.60;;
40367;SDS011;26075;43.320;21.920;2022-12-18T01:00:07;42.50;;;29.15;;
40367;SDS011;26075;43.320;21.920;2022-12-18T01:05:14;45.85;;;29.85;;
40367;SDS011;26075;43.320;21.920;2022-12-18T01:10:17;46.85;;;30.13;;
40367;SDS011;26075;43.320;21.920;2022-12-18T01:15:24;45.17;;;29.48;;
40367;SDS011;26075;43.320;21.920;2022-12-18T01:20:24;43.08;;;29.15;;
40367;SDS011;26075;43.320;21.920;2022-12-18T01:25:25;45.17;;;30.20;;
40367;SDS011;26075;43.320;21.920;2022-12-18T01:30:26;45.15;;;29.70;;
40367;SDS011;26075;43.320;21.920;2022-12-18T01:35:43;47.10;;;30.77;;
40367;SDS011;26075;43.320;21.920;2022-12-18T01:40:44;48.00;;;29.40;;
40367;SDS011;26075;43.320;21.920;2022-12-18T01:45:44;43.58;;;29.27;;
40367;SDS011;26075;43.320;21.920;2022-12-18T01:50:45;46.42;;;29.75;;
40367;SDS011;26075;43.320;21.920;2022-12-18T01:55:48;45.97;;;29.52;;
40367;SDS011;26075;43.320;21.920;2022-12-18T02:00:53;40.65;;;27.77;;
40367;SDS011;26075;43.320;21.920;2022-12-18T02:16:31;49.65;;;29.48;;
40367;SDS011;26075;43.320;21.920;2022-12-18T02:21:40;44.00;;;28.30;;
40367;SDS011;26075;43.320;21.920;2022-12-18T02:26:50;44.08;;;28.52;;
40367;SDS011;26075;43.320;21.920;2022-12-18T02:37:01;45.67;;;28.42;;
40367;SDS011;26075;43.320;21.920;2022-12-18T02:42:04;44.30;;;28.50;;
40367;SDS011;26075;43.320;21.920;2022-12-18T02:47:09;46.38;;;29.48;;
40367;SDS011;26075;43.320;21.920;2022-12-18T02:57:34;45.95;;;29.83;;
40367;SDS011;26075;43.320;21.920;2022-12-18T03:02:48;47.58;;;30.83;;
40367;SDS011;26075;43.320;21.920;2022-12-18T03:08:01;47.13;;;30.20;;
40367;SDS011;26075;43.320;21.920;2022-12-18T03:23:53;44.45;;;27.98;;
40367;SDS011;26075;43.320;21.920;2022-12-18T03:28:56;45.83;;;28.38;;
40367;SDS011;26075;43.320;21.920;2022-12-18T03:34:02;50.00;;;29.55;;
40367;SDS011;26075;43.320;21.920;2022-12-18T03:39:14;46.58;;;27.77;;
40367;SDS011;26075;43.320;21.920;2022-12-18T03:44:36;48.63;;;29.98;;
40367;SDS011;26075;43.320;21.920;2022-12-18T03:50:01;47.55;;;29.35;;
40367;SDS011;26075;43.320;21.920;2022-12-18T03:55:17;48.53;;;28.92;;
40367;SDS011;26075;43.320;21.920;2022-12-18T04:00:19;46.00;;;27.67;;
40367;SDS011;26075;43.320;21.920;2022-12-18T04:05:21;48.08;;;28.85;;
40367;SDS011;26075;43.320;21.920;2022-12-18T04:10:24;48.20;;;28.67;;
40367;SDS011;26075;43.320;21.920;2022-12-18T04:15:25;46.45;;;27.92;;
40367;SDS011;26075;43.320;21.920;2022-12-18T04:26:09;44.47;;;26.95;;
40367;SDS011;26075;43.320;21.920;2022-12-18T04:36:33;45.90;;;27.65;;
40367;SDS011;26075;43.320;21.920;2022-12-18T04:41:33;42.63;;;27.48;;
40367;SDS011;26075;43.320;21.920;2022-12-18T04:51:44;52.20;;;27.98;;
40367;SDS011;26075;43.320;21.920;2022-12-18T04:56:44;44.95;;;27.40;;
40367;SDS011;26075;43.320;21.920;2022-12-18T05:01:45;46.42;;;26.70;;
40367;SDS011;26075;43.320;21.920;2022-12-18T05:06:46;44.70;;;27.30;;
40367;SDS011;26075;43.320;21.920;2022-12-18T05:11:48;41.50;;;26.27;;
40367;SDS011;26075;43.320;21.920;2022-12-18T05:16:48;46.30;;;27.85;;
40367;SDS011;26075;43.320;21.920;2022-12-18T05:21:49;45.75;;;27.90;;
40367;SDS011;26075;43.320;21.920;2022-12-18T05:26:50;41.75;;;26.10;;
40367;SDS011;26075;43.320;21.920;2022-12-18T05:31:51;45.58;;;28.42;;
40367;SDS011;26075;43.320;21.920;2022-12-18T05:36:57;47.05;;;28.20;;
40367;SDS011;26075;43.320;21.920;2022-12-18T05:41:58;39.60;;;25.65;;
40367;SDS011;26075;43.320;21.920;2022-12-18T05:46:59;44.05;;;27.33;;
40367;SDS011;26075;43.320;21.920;2022-12-18T05:52:01;44.28;;;27.42;;
40367;SDS011;26075;43.320;21.920;2022-12-18T05:57:01;45.78;;;27.52;;
40367;SDS011;26075;43.320;21.920;2022-12-18T06:02:02;46.47;;;28.55;;
40367;SDS011;26075;43.320;21.920;2022-12-18T06:07:03;44.67;;;27.10;;
40367;SDS011;26075;43.320;21.920;2022-12-18T06:12:04;44.45;;;25.77;;
40367;SDS011;26075;43.320;21.920;2022-12-18T06:17:05;42.40;;;25.23;;
40367;SDS011;26075;43.320;21.920;2022-12-18T06:22:06;44.60;;;27.13;;
40367;SDS011;26075;43.320;21.920;2022-12-18T06:27:07;44.28;;;27.27;;
40367;SDS011;26075;43.320;21.920;2022-12-18T06:32:08;46.05;;;26.92;;
40367;SDS011;26075;43.320;21.920;2022-12-18T06:37:09;47.03;;;25.88;;
40367;SDS011;26075;43.320;21.920;2022-12-18T06:42:10;41.85;;;26.17;;
40367;SDS011;26075;43.320;21.920;2022-12-18T06:47:11;42.47;;;27.25;;
40367;SDS011;26075;43.320;21.920;2022-12-18T06:52:24;40.17;;;25.77;;
40367;SDS011;26075;43.320;21.920;2022-12-18T06:57:24;44.65;;;27.00;;
40367;SDS011;26075;43.320;21.920;2022-12-18T07:02:38;41.63;;;25.83;;
40367;SDS011;26075;43.320;21.920;2022-12-18T07:13:04;25.23;;;15.73;;
40367;SDS011;26075;43.320;21.920;2022-12-18T07:18:05;27.40;;;17.23;;
40367;SDS011;26075;43.320;21.920;2022-12-18T07:23:06;29.05;;;17.27;;
40367;SDS011;26075;43.320;21.920;2022-12-18T07:28:07;29.70;;;19.60;;
40367;SDS011;26075;43.320;21.920;2022-12-18T07:33:08;28.67;;;19.75;;
40367;SDS011;26075;43.320;21.920;2022-12-18T07:38:09;27.75;;;19.02;;
40367;SDS011;26075;43.320;21.920;2022-12-18T07:43:18;37.92;;;27.08;;
40367;SDS011;26075;43.320;21.920;2022-12-18T07:48:19;40.10;;;28.50;;
40367;SDS011;26075;43.320;21.920;2022-12-18T07:53:20;44.08;;;28.67;;
40367;SDS011;26075;43.320;21.920;2022-12-18T07:58:21;44.95;;;29.63;;
40367;SDS011;26075;43.320;21.920;2022-12-18T08:03:22;42.70;;;29.05;;
40367;SDS011;26075;43.320;21.920;2022-12-18T08:08:23;47.63;;;30.35;;
40367;SDS011;26075;43.320;21.920;2022-12-18T08:13:24;46.00;;;28.67;;
40367;SDS011;26075;43.320;21.920;2022-12-18T08:18:26;50.75;;;30.35;;
40367;SDS011;26075;43.320;21.920;2022-12-18T08:23:27;49.85;;;30.77;;
40367;SDS011;26075;43.320;21.920;2022-12-18T08:28:27;47.17;;;30.45;;
40367;SDS011;26075;43.320;21.920;2022-12-18T08:33:28;52.45;;;31.30;;
40367;SDS011;26075;43.320;21.920;2022-12-18T08:38:29;47.67;;;29.20;;
40367;SDS011;26075;43.320;21.920;2022-12-18T08:43:30;51.10;;;30.27;;
40367;SDS011;26075;43.320;21.920;2022-12-18T08:54:19;48.30;;;28.17;;
40367;SDS011;26075;43.320;21.920;2022-12-18T08:59:35;55.20;;;32.28;;
40367;SDS011;26075;43.320;21.920;2022-12-18T09:04:36;56.92;;;31.58;;
40367;SDS011;26075;43.320;21.920;2022-12-18T09:15:34;49.17;;;30.00;;
40367;SDS011;26075;43.320;21.920;2022-12-18T09:26:36;55.08;;;33.63;;
40367;SDS011;26075;43.320;21.920;2022-12-18T09:37:33;55.17;;;31.52;;
40367;SDS011;26075;43.320;21.920;2022-12-18T09:42:37;53.70;;;31.70;;
40367;SDS011;26075;43.320;21.920;2022-12-18T09:47:38;42.20;;;26.52;;
40367;SDS011;26075;43.320;21.920;2022-12-18T10:03:44;46.05;;;26.63;;
40367;SDS011;26075;43.320;21.920;2022-12-18T10:31:23;45.88;;;28.52;;
40367;SDS011;26075;43.320;21.920;2022-12-18T10:41:44;43.65;;;26.40;;
40367;SDS011;26075;43.320;21.920;2022-12-18T10:52:33;45.05;;;27.75;;
40367;SDS011;26075;43.320;21.920;2022-12-18T10:57:35;43.78;;;28.00;;
40367;SDS011;26075;43.320;21.920;2022-12-18T11:02:42;46.17;;;28.08;;
40367;SDS011;26075;43.320;21.920;2022-12-18T11:07:49;45.63;;;27.00;;
40367;SDS011;26075;43.320;21.920;2022-12-18T11:18:39;47.53;;;29.10;;
40367;SDS011;26075;43.320;21.920;2022-12-18T11:29:27;51.70;;;31.60;;
40367;SDS011;26075;43.320;21.920;2022-12-18T11:40:36;48.40;;;27.67;;
40367;SDS011;26075;43.320;21.920;2022-12-18T11:51:23;46.92;;;28.70;;
40367;SDS011;26075;43.320;21.920;2022-12-18T12:13:37;45.70;;;27.42;;
40367;SDS011;26075;43.320;21.920;2022-12-18T12:35:32;44.50;;;25.40;;
40367;SDS011;26075;43.320;21.920;2022-12-18T12:40:38;40.38;;;25.80;;
40367;SDS011;26075;43.320;21.920;2022-12-18T12:50:53;41.88;;;24.55;;
40367;SDS011;26075;43.320;21.920;2022-12-18T12:55:55;43.58;;;26.15;;
40367;SDS011;26075;43.320;21.920;2022-12-18T13:06:35;40.75;;;26.35;;
40367;SDS011;26075;43.320;21.920;2022-12-18T13:11:43;39.55;;;25.58;;
40367;SDS011;26075;43.320;21.920;2022-12-18T13:22:40;35.88;;;22.92;;
40367;SDS011;26075;43.320;21.920;2022-12-18T13:54:46;41.70;;;24.67;;
40367;SDS011;26075;43.320;21.920;2022-12-18T13:59:58;39.37;;;24.67;;
40367;SDS011;26075;43.320;21.920;2022-12-18T14:05:23;40.08;;;24.80;;
40367;SDS011;26075;43.320;21.920;2022-12-18T14:10:32;40.37;;;25.47;;
40367;SDS011;26075;43.320;21.920;2022-12-18T14:15:43;44.78;;;26.33;;
40367;SDS011;26075;43.320;21.920;2022-12-18T14:20:49;39.80;;;24.67;;
40367;SDS011;26075;43.320;21.920;2022-12-18T14:25:51;43.43;;;26.37;;
40367;SDS011;26075;43.320;21.920;2022-12-18T14:30:53;41.83;;;26.10;;
40367;SDS011;26075;43.320;21.920;2022-12-18T14:36:05;42.28;;;25.65;;
40367;SDS011;26075;43.320;21.920;2022-12-18T14:41:15;44.75;;;26.92;;
40367;SDS011;26075;43.320;21.920;2022-12-18T14:51:41;37.45;;;24.30;;
40367;SDS011;26075;43.320;21.920;2022-12-18T15:07:44;47.65;;;25.95;;
40367;SDS011;26075;43.320;21.920;2022-12-18T15:12:47;41.05;;;26.33;;
40367;SDS011;26075;43.320;21.920;2022-12-18T15:17:58;38.45;;;24.35;;
40367;SDS011;26075;43.320;21.920;2022-12-18T15:23:02;38.70;;;24.15;;
40367;SDS011;26075;43.320;21.920;2022-12-18T15:28:19;36.25;;;22.63;;
40367;SDS011;26075;43.320;21.920;2022-12-18T15:33:36;38.70;;;23.15;;
40367;SDS011;26075;43.320;21.920;2022-12-18T15:44:35;42.42;;;26.17;;
40367;SDS011;26075;43.320;21.920;2022-12-18T15:49:36;44.58;;;28.58;;
40367;SDS011;26075;43.320;21.920;2022-12-18T15:54:42;43.90;;;26.65;;
40367;SDS011;26075;43.320;21.920;2022-12-18T16:00:11;43.60;;;28.30;;
40367;SDS011;26075;43.320;21.920;2022-12-18T16:11:16;49.00;;;29.50;;
40367;SDS011;26075;43.320;21.920;2022-12-18T16:16:37;43.53;;;28.35;;
40367;SDS011;26075;43.320;21.920;2022-12-18T16:21:38;44.53;;;28.33;;
40367;SDS011;26075;43.320;21.920;2022-12-18T16:32:08;56.20;;;31.63;;
40367;SDS011;26075;43.320;21.920;2022-12-18T16:37:25;48.35;;;28.75;;
40367;SDS011;26075;43.320;21.920;2022-12-18T16:53:24;51.38;;;31.77;;
40367;SDS011;26075;43.320;21.920;2022-12-18T16:58:28;42.72;;;27.75;;
40367;SDS011;26075;43.320;21.920;2022-12-18T17:09:07;41.33;;;24.55;;
40367;SDS011;26075;43.320;21.920;2022-12-18T17:14:15;43.70;;;27.30;;
40367;SDS011;26075;43.320;21.920;2022-12-18T17:25:05;40.95;;;24.10;;
40367;SDS011;26075;43.320;21.920;2022-12-18T17:35:32;43.13;;;26.67;;
40367;SDS011;26075;43.320;21.920;2022-12-18T17:40:32;41.08;;;25.77;;
40367;SDS011;26075;43.320;21.920;2022-12-18T17:45:37;45.20;;;27.52;;
40367;SDS011;26075;43.320;21.920;2022-12-18T17:50:38;39.88;;;25.85;;
40367;SDS011;26075;43.320;21.920;2022-12-18T17:55:39;42.10;;;27.92;;
40367;SDS011;26075;43.320;21.920;2022-12-18T18:12:00;52.05;;;28.65;;
40367;SDS011;26075;43.320;21.920;2022-12-18T18:22:47;51.70;;;30.55;;
40367;SDS011;26075;43.320;21.920;2022-12-18T18:33:18;49.88;;;29.27;;
40367;SDS011;26075;43.320;21.920;2022-12-18T18:38:19;51.67;;;31.80;;
40367;SDS011;26075;43.320;21.920;2022-12-18T18:49:10;50.88;;;30.85;;
40367;SDS011;26075;43.320;21.920;2022-12-18T19:05:38;51.88;;;30.13;;
40367;SDS011;26075;43.320;21.920;2022-12-18T19:16:35;52.25;;;31.48;;
40367;SDS011;26075;43.320;21.920;2022-12-18T19:21:37;57.03;;;32.35;;
40367;SDS011;26075;43.320;21.920;2022-12-18T19:32:18;45.17;;;27.67;;
40367;SDS011;26075;43.320;21.920;2022-12-18T19:37:19;50.75;;;29.00;;
40367;SDS011;26075;43.320;21.920;2022-12-18T19:42:20;55.72;;;31.45;;
40367;SDS011;26075;43.320;21.920;2022-12-18T19:53:17;54.78;;;30.85;;
40367;SDS011;26075;43.320;21.920;2022-12-18T19:58:18;54.95;;;33.60;;
40367;SDS011;26075;43.320;21.920;2022-12-18T20:03:19;57.05;;;33.25;;
40367;SDS011;26075;43.320;21.920;2022-12-18T20:08:20;52.42;;;30.30;;
40367;SDS011;26075;43.320;21.920;2022-12-18T20:13:21;48.15;;;29.55;;
40367;SDS011;26075;43.320;21.920;2022-12-18T20:18:22;54.00;;;32.30;;
40367;SDS011;26075;43.320;21.920;2022-12-18T20:23:23;53.40;;;30.98;;
40367;SDS011;26075;43.320;21.920;2022-12-18T20:34:20;50.17;;;29.13;;
40367;SDS011;26075;43.320;21.920;2022-12-18T20:39:21;52.60;;;29.88;;
40367;SDS011;26075;43.320;21.920;2022-12-18T20:44:21;56.95;;;34.22;;
40367;SDS011;26075;43.320;21.920;2022-12-18T20:49:23;54.58;;;29.98;;
40367;SDS011;26075;43.320;21.920;2022-12-18T20:54:26;54.70;;;31.70;;
40367;SDS011;26075;43.320;21.920;2022-12-18T20:59:26;50.83;;;29.98;;
40367;SDS011;26075;43.320;21.920;2022-12-18T21:04:41;53.97;;;30.38;;
40367;SDS011;26075;43.320;21.920;2022-12-18T21:15:33;53.78;;;30.80;;
40367;SDS011;26075;43.320;21.920;2022-12-18T21:20:34;55.33;;;32.35;;
40367;SDS011;26075;43.320;21.920;2022-12-18T21:25:35;55.75;;;32.67;;
40367;SDS011;26075;43.320;21.920;2022-12-18T21:30:36;57.63;;;33.28;;
40367;SDS011;26075;43.320;21.920;2022-12-18T21:35:37;57.65;;;34.72;;
40367;SDS011;26075;43.320;21.920;2022-12-18T21:40:37;58.00;;;33.75;;
40367;SDS011;26075;43.320;21.920;2022-12-18T21:45:44;58.58;;;33.45;;
40367;SDS011;26075;43.320;21.920;2022-12-18T21:50:45;58.83;;;35.10;;
40367;SDS011;26075;43.320;21.920;2022-12-18T21:55:55;61.40;;;35.30;;
40367;SDS011;26075;43.320;21.920;2022-12-18T22:01:02;58.83;;;34.38;;
40367;SDS011;26075;43.320;21.920;2022-12-18T22:06:09;61.53;;;33.97;;
40367;SDS011;26075;43.320;21.920;2022-12-18T22:11:10;62.40;;;36.97;;
40367;SDS011;26075;43.320;21.920;2022-12-18T22:16:12;65.35;;;37.08;;
40367;SDS011;26075;43.320;21.920;2022-12-18T22:21:22;62.22;;;36.80;;
40367;SDS011;26075;43.320;21.920;2022-12-18T22:26:28;53.80;;;31.73;;
40367;SDS011;26075;43.320;21.920;2022-12-18T22:31:30;57.60;;;33.55;;
40367;SDS011;26075;43.320;21.920;2022-12-18T22:41:42;57.65;;;32.22;;
40367;SDS011;26075;43.320;21.920;2022-12-18T22:46:43;56.35;;;33.17;;
40367;SDS011;26075;43.320;21.920;2022-12-18T22:51:46;51.95;;;29.95;;
40367;SDS011;26075;43.320;21.920;2022-12-18T22:56:47;55.95;;;31.58;;
40367;SDS011;26075;43.320;21.920;2022-12-18T23:01:49;43.25;;;23.38;;
40367;SDS011;26075;43.320;21.920;2022-12-18T23:06:50;49.92;;;29.83;;
40367;SDS011;26075;43.320;21.920;2022-12-18T23:11:51;44.95;;;27.55;;
40367;SDS011;26075;43.320;21.920;2022-12-18T23:16:52;46.90;;;27.33;;
40367;SDS011;26075;43.320;21.920;2022-12-18T23:21:53;43.65;;;25.45;;
40367;SDS011;26075;43.320;21.920;2022-12-18T23:32:18;45.63;;;26.27;;
40367;SDS011;26075;43.320;21.920;2022-12-18T23:43:16;44.72;;;26.63;;
40367;SDS011;26075;43.320;21.920;2022-12-18T23:53:21;45.37;;;27.40;;
40367;SDS011;26075;43.320;21.920;2022-12-18T23:58:22;47.50;;;28.85;;
